Time;durP1;ratioP1;P1;durP2;ratioP2;P2;SDS_P1;SDS_P2;PMS_P1;PMS_P2;Temp;Humidity;BMP_temperature;BMP_pressure;BME280_temperature;BME280_humidity;BME280_pressure;Samples;Min_cycle;Max_cycle;Signal;HPM_P1;HPM_P2
2022/07/13 00:02:16;;;;;;;;;;;;;;;;;;5094512;28;1396;-71
2022/07/13 00:04:42;;;;;;;;;;;;;;;;;;5094340;28;1977;-71
2022/07/13 00:07:08;;;;;;;;;;;;;;;;;;5093781;28;1087;-71
2022/07/13 00:09:34;;;;;;;;;;;;;;;;;;5094490;28;838;-70
2022/07/13 00:12:00;;;;;;;;;;;;;;;;;;5076203;28;1039;-71
2022/07/13 00:14:29;;;;;;;;;;;;;;;;;;5094334;28;1379;-71
2022/07/13 00:16:55;;;;;;;;;;;;;;;;;;5093770;28;1125;-71
2022/07/13 00:19:21;;;;;;;;;;;;;;;;;;5094338;28;1067;-71
2022/07/13 00:21:47;;;;;;;;;;;;;;;;;;5094254;28;739;-72
2022/07/13 00:24:14;;;;;;;;;;;;;;;;;;5093604;28;1915;-71
2022/07/13 00:26:41;;;;;;;;;;;;;;;;;;5093312;28;1519;-71
2022/07/13 00:29:07;;;;;;;;;;;;;;;;;;5076168;28;1322;-72
2022/07/13 00:31:34;;;;;;;;;;;;;;;;;;5093969;28;1071;-71
2022/07/13 00:34:01;;;;;;;;;;;;;;;;;;5094049;28;1302;-71
2022/07/13 00:36:27;;;;;;;;;;;;;;;;;;5075043;28;1132;-71
2022/07/13 00:38:53;;;;;;;;;;;;;;;;;;5093880;28;1035;-71
2022/07/13 00:41:19;;;;;;;;;;;;;;;;;;5093724;28;1161;-71
2022/07/13 00:43:46;;;;;;;;;;;;;;;;;;5093492;28;1977;-71
2022/07/13 00:46:13;;;;;;;;;;;;;;;;;;5091028;28;1244;-70
2022/07/13 00:48:41;;;;;;;;;;;;;;;;;;5093182;28;841;-71
2022/07/13 00:51:07;;;;;;;;;;;;;;;;;;5075515;28;1203;-71
2022/07/13 00:53:34;;;;;;;;;;;;;;;;;;5075260;28;1337;-71
2022/07/13 00:56:00;;;;;;;;;;;;;;;;;;5075372;28;1250;-71
2022/07/13 00:58:26;;;;;;;;;;;;;;;;;;5091395;28;1099;-71
2022/07/13 01:00:52;;;;;;;;;;;;;;;;;;5091859;28;1457;-71
2022/07/13 01:03:18;;;;;;;;;;;;;;;;;;5093282;28;1922;-71
2022/07/13 01:05:46;;;;;;;;;;;;;;;;;;5091960;28;1380;-71
2022/07/13 01:08:12;;;;;;;;;;;;;;;;;;5092558;28;1286;-70
2022/07/13 01:10:39;;;;;;;;;;;;;;;;;;5091910;28;1121;-70
2022/07/13 01:13:06;;;;;;;;;;;;;;;;;;5075048;28;1312;-71
2022/07/13 01:15:33;;;;;;;;;;;;;;;;;;5093570;28;817;-71
2022/07/13 01:17:59;;;;;;;;;;;;;;;;;;5091563;28;1556;-71
2022/07/13 01:20:25;;;;;;;;;;;;;;;;;;5092126;28;1305;-71
2022/07/13 01:22:53;;;;;;;;;;;;;;;;;;5092666;28;1416;-71
2022/07/13 01:25:21;;;;;;;;;;;;;;;;;;5107344;22;2080;-75
2022/07/13 01:27:48;;;;;;;;;;;;;;;;;;5073709;28;1242;-74
2022/07/13 01:30:14;;;;;;;;;;;;;;;;;;5074621;28;1275;-74
2022/07/13 01:32:44;;;;;;;;;;;;;;;;;;5074169;28;1313;-74
2022/07/13 01:35:10;;;;;;;;;;;;;;;;;;5074208;28;1435;-74
2022/07/13 01:37:36;;;;;;;;;;;;;;;;;;5073637;28;1209;-74
2022/07/13 01:40:03;;;;;;;;;;;;;;;;;;5074186;28;1267;-74
2022/07/13 01:42:31;;;;;;;;;;;;;;;;;;5092182;28;777;-75
2022/07/13 01:44:57;;;;;;;;;;;;;;;;;;5092171;28;1926;-75
2022/07/13 01:47:23;;;;;;;;;;;;;;;;;;5073405;28;988;-75
2022/07/13 01:49:49;;;;;;;;;;;;;;;;;;5074011;28;1537;-73
2022/07/13 01:52:15;;;;;;;;;;;;;;;;;;5073913;28;1330;-73
2022/07/13 01:54:42;;;;;;;;;;;;;;;;;;5073490;28;1404;-75
2022/07/13 01:57:08;;;;;;;;;;;;;;;;;;5091400;28;746;-75
2022/07/13 01:59:35;;;;;;;;;;;;;;;;;;5073728;28;1375;-75
2022/07/13 02:02:02;;;;;;;;;;;;;;;;;;5073898;28;1322;-75
2022/07/13 02:04:28;;;;;;;;;;;;;;;;;;5073586;28;1914;-75
2022/07/13 02:06:54;;;;;;;;;;;;;;;;;;5073152;28;1307;-75
2022/07/13 02:09:21;;;;;;;;;;;;;;;;;;5073410;28;1640;-73
2022/07/13 02:11:47;;;;;;;;;;;;;;;;;;5073630;28;1154;-74
2022/07/13 02:14:14;;;;;;;;;;;;;;;;;;5073642;28;1317;-75
2022/07/13 02:16:41;;;;;;;;;;;;;;;;;;5072459;28;1376;-74
2022/07/13 02:19:07;;;;;;;;;;;;;;;;;;5091626;28;1499;-75
2022/07/13 02:21:34;;;;;;;;;;;;;;;;;;5073327;28;1139;-74
2022/07/13 02:24:00;;;;;;;;;;;;;;;;;;5073441;28;1967;-74
2022/07/13 02:26:26;;;;;;;;;;;;;;;;;;5090650;28;1385;-74
2022/07/13 02:28:52;;;;;;;;;;;;;;;;;;5073302;28;1230;-74
2022/07/13 02:31:19;;;;;;;;;;;;;;;;;;5073352;28;1602;-75
2022/07/13 02:33:46;;;;;;;;;;;;;;;;;;5091274;28;985;-75
2022/07/13 02:36:13;;;;;;;;;;;;;;;;;;5072475;28;1480;-74
2022/07/13 02:38:39;;;;;;;;;;;;;;;;;;5091341;28;1075;-74
2022/07/13 02:41:05;;;;;;;;;;;;;;;;;;5073229;28;1320;-74
2022/07/13 02:43:31;;;;;;;;;;;;;;;;;;5072959;28;1156;-74
2022/07/13 02:45:58;;;;;;;;;;;;;;;;;;5069021;28;2046;-73
2022/07/13 02:48:24;;;;;;;;;;;;;;;;;;5074075;28;1424;-73
2022/07/13 02:50:51;;;;;;;;;;;;;;;;;;5091137;28;1169;-74
2022/07/13 02:53:19;;;;;;;;;;;;;;;;;;5072918;28;1246;-74
2022/07/13 02:55:45;;;;;;;;;;;;;;;;;;5091131;28;1317;-72
2022/07/13 02:58:11;;;;;;;;;;;;;;;;;;5072169;28;1194;-75
2022/07/13 03:00:38;;;;;;;;;;;;;;;;;;5072903;28;1381;-75
2022/07/13 03:03:04;;;;;;;;;;;;;;;;;;5072674;28;1150;-74
2022/07/13 03:05:31;;;;;;;;;;;;;;;;;;5072898;28;1918;-74
2022/07/13 03:07:58;;;;;;;;;;;;;;;;;;5072223;28;1254;-74
2022/07/13 03:10:24;;;;;;;;;;;;;;;;;;5072158;28;1243;-74
2022/07/13 03:12:55;;;;;;;;;;;;;;;;;;5072754;28;1293;-74
2022/07/13 03:15:22;;;;;;;;;;;;;;;;;;5090850;28;1337;-74
2022/07/13 03:17:48;;;;;;;;;;;;;;;;;;5072032;28;1273;-74
2022/07/13 03:20:15;;;;;;;;;;;;;;;;;;5090760;28;708;-73
2022/07/13 03:22:41;;;;;;;;;;;;;;;;;;5090798;28;845;-74
2022/07/13 03:25:10;;;;;;;;;;;;;;;;;;5072418;28;1972;-75
2022/07/13 03:27:36;;;;;;;;;;;;;;;;;;5071956;28;1213;-74
2022/07/13 03:30:02;;;;;;;;;;;;;;;;;;5072788;28;1304;-74
2022/07/13 03:32:31;;;;;;;;;;;;;;;;;;5072627;28;1605;-75
2022/07/13 03:34:57;;;;;;;;;;;;;;;;;;5072387;28;1417;-74
2022/07/13 03:37:26;;;;;;;;;;;;;;;;;;5071962;28;1155;-74
2022/07/13 03:39:54;;;;;;;;;;;;;;;;;;5072606;28;1150;-74
2022/07/13 03:42:23;;;;;;;;;;;;;;;;;;5072476;28;1430;-73
2022/07/13 03:44:50;;;;;;;;;;;;;;;;;;5072383;28;1905;-74
2022/07/13 03:47:16;;;;;;;;;;;;;;;;;;5071756;28;1309;-74
2022/07/13 03:49:42;;;;;;;;;;;;;;;;;;5090707;28;788;-74
2022/07/13 03:52:10;;;;;;;;;;;;;;;;;;5072295;28;1552;-75
2022/07/13 03:54:36;;;;;;;;;;;;;;;;;;5072493;28;1426;-74
2022/07/13 03:57:03;;;;;;;;;;;;;;;;;;5071511;28;1572;-75
2022/07/13 03:59:31;;;;;;;;;;;;;;;;;;5072465;28;1469;-74
2022/07/13 04:01:57;;;;;;;;;;;;;;;;;;5072050;28;2132;-75
2022/07/13 04:04:23;;;;;;;;;;;;;;;;;;5090447;28;1910;-75
2022/07/13 04:06:50;;;;;;;;;;;;;;;;;;5089862;28;807;-74
2022/07/13 04:09:16;;;;;;;;;;;;;;;;;;5072179;28;1212;-75
2022/07/13 04:11:42;;;;;;;;;;;;;;;;;;5090294;28;787;-74
2022/07/13 04:14:11;;;;;;;;;;;;;;;;;;5072631;28;1584;-74
2022/07/13 04:16:38;;;;;;;;;;;;;;;;;;5071559;28;1364;-75
2022/07/13 04:19:06;;;;;;;;;;;;;;;;;;5071559;28;1490;-75
2022/07/13 04:21:33;;;;;;;;;;;;;;;;;;5072448;28;1450;-75
2022/07/13 04:23:59;;;;;;;;;;;;;;;;;;5075765;28;1163;-75
2022/07/13 04:26:26;;;;;;;;;;;;;;;;;;5074760;28;1967;-74
2022/07/13 04:28:52;;;;;;;;;;;;;;;;;;5075704;28;1296;-74
2022/07/13 04:31:21;;;;;;;;;;;;;;;;;;5075534;28;1539;-74
2022/07/13 04:33:48;;;;;;;;;;;;;;;;;;5090599;28;1451;-74
2022/07/13 04:36:18;;;;;;;;;;;;;;;;;;5067462;28;1521;-74
2022/07/13 04:38:45;;;;;;;;;;;;;;;;;;5073541;28;1432;-74
2022/07/13 04:41:11;;;;;;;;;;;;;;;;;;5066025;28;1450;-74
2022/07/13 04:43:39;;;;;;;;;;;;;;;;;;5074406;28;1431;-74
2022/07/13 04:46:11;;;;;;;;;;;;;;;;;;5091430;28;1902;-74
2022/07/13 04:48:37;;;;;;;;;;;;;;;;;;5092182;28;1178;-73
2022/07/13 04:51:05;;;;;;;;;;;;;;;;;;5093208;28;984;-74
2022/07/13 04:53:33;;;;;;;;;;;;;;;;;;5092118;28;1298;-73
2022/07/13 04:56:01;;;;;;;;;;;;;;;;;;5092072;28;1503;-73
2022/07/13 04:58:27;;;;;;;;;;;;;;;;;;5091214;28;1227;-74
2022/07/13 05:00:53;;;;;;;;;;;;;;;;;;5091992;28;1485;-74
2022/07/13 05:03:21;;;;;;;;;;;;;;;;;;5091899;28;1387;-74
2022/07/13 05:05:47;;;;;;;;;;;;;;;;;;5091774;28;1977;-74
2022/07/13 05:08:15;;;;;;;;;;;;;;;;;;5091066;28;1426;-74
2022/07/13 05:10:42;;;;;;;;;;;;;;;;;;5091665;28;1170;-73
2022/07/13 05:13:08;;;;;;;;;;;;;;;;;;5091626;28;1327;-75
2022/07/13 05:15:35;;;;;;;;;;;;;;;;;;5091655;28;1699;-73
2022/07/13 05:18:01;;;;;;;;;;;;;;;;;;5090851;28;1482;-74
2022/07/13 05:20:28;;;;;;;;;;;;;;;;;;5091661;28;1176;-74
2022/07/13 05:22:57;;;;;;;;;;;;;;;;;;5091469;28;1394;-74
2022/07/13 05:25:29;;;;;;;;;;;;;;;;;;5091310;28;1971;-74
2022/07/13 05:27:55;;;;;;;;;;;;;;;;;;5063471;28;1541;-74
2022/07/13 05:30:21;;;;;;;;;;;;;;;;;;5069415;28;1321;-76
2022/07/13 05:32:47;;;;;;;;;;;;;;;;;;5084202;28;1535;-75
2022/07/13 05:35:14;;;;;;;;;;;;;;;;;;5072333;28;1428;-76
2022/07/13 05:37:42;;;;;;;;;;;;;;;;;;5071841;28;1466;-75
2022/07/13 05:40:09;;;;;;;;;;;;;;;;;;5080805;28;1380;-74
2022/07/13 05:42:38;;;;;;;;;;;;;;;;;;5065535;28;1604;-76
2022/07/13 05:45:04;;;;;;;;;;;;;;;;;;5072428;28;1917;-73
2022/07/13 05:47:31;;;;;;;;;;;;;;;;;;5072190;28;1659;-75
2022/07/13 05:49:57;;;;;;;;;;;;;;;;;;5073977;28;1360;-75
2022/07/13 05:52:25;;;;;;;;;;;;;;;;;;5073004;28;1468;-74
2022/07/13 05:54:52;;;;;;;;;;;;;;;;;;5067587;28;1654;-74
2022/07/13 05:57:21;;;;;;;;;;;;;;;;;;5061840;28;1384;-75
2022/07/13 05:59:49;;;;;;;;;;;;;;;;;;5091725;28;925;-75
2022/07/13 06:02:15;;;;;;;;;;;;;;;;;;5089259;28;1397;-73
2022/07/13 06:04:41;;;;;;;;;;;;;;;;;;5082146;28;1462;-75
2022/07/13 06:07:08;;;;;;;;;;;;;;;;;;5090716;28;1972;-73
2022/07/13 06:09:34;;;;;;;;;;;;;;;;;;5091794;28;987;-74
2022/07/13 06:12:00;;;;;;;;;;;;;;;;;;5090414;28;1133;-74
2022/07/13 06:14:27;;;;;;;;;;;;;;;;;;5091390;28;1518;-74
2022/07/13 06:16:54;;;;;;;;;;;;;;;;;;5089004;28;1522;-74
2022/07/13 06:19:20;;;;;;;;;;;;;;;;;;5091157;28;1153;-74
2022/07/13 06:21:46;;;;;;;;;;;;;;;;;;5091508;28;1051;-75
2022/07/13 06:24:13;;;;;;;;;;;;;;;;;;5089517;28;1410;-72
2022/07/13 06:26:39;;;;;;;;;;;;;;;;;;5090258;28;1980;-74
2022/07/13 06:29:05;;;;;;;;;;;;;;;;;;5076676;28;1334;-74
2022/07/13 06:31:32;;;;;;;;;;;;;;;;;;5090797;28;892;-75
2022/07/13 06:33:59;;;;;;;;;;;;;;;;;;5091326;28;1118;-75
2022/07/13 06:36:25;;;;;;;;;;;;;;;;;;5088622;28;1316;-74
2022/07/13 06:38:52;;;;;;;;;;;;;;;;;;5089796;28;1387;-75
2022/07/13 06:41:18;;;;;;;;;;;;;;;;;;5090109;28;1412;-74
2022/07/13 06:43:44;;;;;;;;;;;;;;;;;;5072834;28;1628;-74
2022/07/13 06:46:10;;;;;;;;;;;;;;;;;;5087700;28;1979;-74
2022/07/13 06:48:36;;;;;;;;;;;;;;;;;;5091080;28;1110;-74
2022/07/13 06:51:04;;;;;;;;;;;;;;;;;;5091022;28;1004;-73
2022/07/13 06:53:30;;;;;;;;;;;;;;;;;;5090126;28;1434;-75
2022/07/13 06:55:56;;;;;;;;;;;;;;;;;;5076241;28;1403;-74
2022/07/13 06:58:22;;;;;;;;;;;;;;;;;;5073337;28;1439;-74
2022/07/13 07:00:49;;;;;;;;;;;;;;;;;;5087864;28;1064;-74
2022/07/13 07:03:15;;;;;;;;;;;;;;;;;;5084065;28;1233;-73
2022/07/13 07:05:41;;;;;;;;;;;;;;;;;;5088468;28;1969;-73
2022/07/13 07:08:08;;;;;;;;;;;;;;;;;;5078487;28;1169;-74
2022/07/13 07:10:35;;;;;;;;;;;;;;;;;;5083729;28;1564;-74
2022/07/13 07:13:01;;;;;;;;;;;;;;;;;;5091831;28;1213;-73
2022/07/13 07:15:27;;;;;;;;;;;;;;;;;;5090931;28;1426;-74
2022/07/13 07:17:53;;;;;;;;;;;;;;;;;;5089267;28;1481;-74
2022/07/13 07:20:19;;;;;;;;;;;;;;;;;;5089654;28;1067;-74
2022/07/13 07:22:46;;;;;;;;;;;;;;;;;;5088852;28;1474;-73
2022/07/13 07:25:14;;;;;;;;;;;;;;;;;;5089280;28;1984;-73
2022/07/13 07:27:47;;;;;;;;;;;;;;;;;;5089939;28;1375;-72
2022/07/13 07:30:13;;;;;;;;;;;;;;;;;;5090067;28;719;-72
2022/07/13 07:32:40;;;;;;;;;;;;;;;;;;5090090;28;1130;-72
2022/07/13 07:35:06;;;;;;;;;;;;;;;;;;5089730;28;1324;-73
2022/07/13 07:37:33;;;;;;;;;;;;;;;;;;5087706;28;1479;-70
2022/07/13 07:39:59;;;;;;;;;;;;;;;;;;5089546;28;1291;-73
2022/07/13 07:42:29;;;;;;;;;;;;;;;;;;5071929;28;1382;-74
2022/07/13 07:44:56;;;;;;;;;;;;;;;;;;5086341;28;1908;-74
2022/07/13 07:47:25;;;;;;;;;;;;;;;;;;5065387;28;2007;-72
2022/07/13 07:49:51;;;;;;;;;;;;;;;;;;5088631;28;1147;-73
2022/07/13 07:52:17;;;;;;;;;;;;;;;;;;5087578;28;1553;-74
2022/07/13 07:54:43;;;;;;;;;;;;;;;;;;5083553;28;1392;-72
2022/07/13 07:57:10;;;;;;;;;;;;;;;;;;5089574;28;1299;-74
2022/07/13 07:59:37;;;;;;;;;;;;;;;;;;5091229;28;933;-73
2022/07/13 08:02:03;;;;;;;;;;;;;;;;;;5089092;28;1417;-73
2022/07/13 08:04:29;;;;;;;;;;;;;;;;;;5069936;28;1415;-73
2022/07/13 08:06:56;;;;;;;;;;;;;;;;;;5092807;28;1983;-72
2022/07/13 08:09:22;;;;;;;;;;;;;;;;;;5093577;28;952;-72
2022/07/13 08:11:48;;;;;;;;;;;;;;;;;;5093360;28;1040;-73
2022/07/13 08:14:14;;;;;;;;;;;;;;;;;;5088159;28;1411;-72
2022/07/13 08:16:42;;;;;;;;;;;;;;;;;;5088225;28;1138;-73
2022/07/13 08:19:08;;;;;;;;;;;;;;;;;;5090559;28;1698;-72
2022/07/13 08:21:35;;;;;;;;;;;;;;;;;;5092555;28;1311;-72
2022/07/13 08:24:01;;;;;;;;;;;;;;;;;;5074790;28;1153;-72
2022/07/13 08:26:28;;;;;;;;;;;;;;;;;;5091772;28;1971;-72
2022/07/13 08:28:54;;;;;;;;;;;;;;;;;;5092262;28;1497;-72
2022/07/13 08:31:22;;;;;;;;;;;;;;;;;;5092160;28;1003;-71
2022/07/13 08:39:17;;;;;;;;;;;;;;;;;;5091155;28;1056;-71
2022/07/13 08:41:43;;;;;;;;;;;;;;;;;;5092608;28;1096;-71
2022/07/13 08:44:09;;;;;;;;;;;;;;;;;;5072599;28;1577;-71
2022/07/13 08:46:36;;;;;;;;;;;;;;;;;;5084702;28;1905;-70
2022/07/13 08:49:03;;;;;;;;;;;;;;;;;;5090122;28;1403;-71
2022/07/13 08:51:30;;;;;;;;;;;;;;;;;;5092338;28;1107;-71
2022/07/13 08:53:56;;;;;;;;;;;;;;;;;;5081952;28;1302;-71
2022/07/13 08:56:23;;;;;;;;;;;;;;;;;;5090231;28;1402;-71
2022/07/13 08:58:49;;;;;;;;;;;;;;;;;;5092170;28;1262;-72
2022/07/13 09:01:15;;;;;;;;;;;;;;;;;;5074276;28;905;-71
2022/07/13 09:03:42;;;;;;;;;;;;;;;;;;5090945;28;1447;-72
2022/07/13 09:06:10;;;;;;;;;;;;;;;;;;5072733;28;1985;-71
2022/07/13 09:08:42;;;;;;;;;;;;;;;;;;5084324;28;1372;-71
2022/07/13 09:11:09;;;;;;;;;;;;;;;;;;5090172;28;1427;-71
2022/07/13 09:13:36;;;;;;;;;;;;;;;;;;5091081;28;1357;-71
2022/07/13 09:16:16;;;;;;;;;;;;;;;;;;5080297;28;1361;-72
2022/07/13 09:18:42;;;;;;;;;;;;;;;;;;5092347;28;1000;-73
2022/07/13 09:21:10;;;;;;;;;;;;;;;;;;5087800;28;1454;-71
2022/07/13 09:23:36;;;;;;;;;;;;;;;;;;5080732;28;1314;-71
2022/07/13 09:26:02;;;;;;;;;;;;;;;;;;5090003;28;1914;-72
2022/07/13 09:28:29;;;;;;;;;;;;;;;;;;5077353;28;1202;-71
2022/07/13 09:30:59;;;;;;;;;;;;;;;;;;5092108;28;1071;-71
2022/07/13 09:33:31;;;;;;;;;;;;;;;;;;5090230;28;1431;-72
2022/07/13 09:35:58;;;;;;;;;;;;;;;;;;5091428;28;1336;-71
2022/07/13 09:38:29;;;;;;;;;;;;;;;;;;5091764;28;1458;-71
2022/07/13 09:40:56;;;;;;;;;;;;;;;;;;5090847;28;1412;-72
2022/07/13 09:46:12;;;;;;;;;;;;;;;;;;5072520;28;2044;-71
2022/07/13 09:48:38;;;;;;;;;;;;;;;;;;5073362;28;755;-72
2022/07/13 09:51:05;;;;;;;;;;;;;;;;;;5072024;28;1398;-72
2022/07/13 09:53:33;;;;;;;;;;;;;;;;;;5078628;28;1312;-72
2022/07/13 09:56:00;;;;;;;;;;;;;;;;;;5073034;28;1359;-72
2022/07/13 09:58:27;;;;;;;;;;;;;;;;;;5090532;28;1130;-72
2022/07/13 10:00:54;;;;;;;;;;;;;;;;;;5091179;28;939;-71
2022/07/13 10:03:21;;;;;;;;;;;;;;;;;;5087624;28;1404;-71
2022/07/13 10:05:47;;;;;;;;;;;;;;;;;;5090984;28;1425;-72
2022/07/13 10:08:13;;;;;;;;;;;;;;;;;;5051983;28;1983;-71
2022/07/13 10:10:41;;;;;;;;;;;;;;;;;;5074975;28;1459;-72
2022/07/13 10:13:07;;;;;;;;;;;;;;;;;;5088390;28;1388;-72
2022/07/13 10:15:33;;;;;;;;;;;;;;;;;;5081063;28;1449;-72
2022/07/13 10:17:59;;;;;;;;;;;;;;;;;;5089867;28;1157;-73
2022/07/13 10:20:26;;;;;;;;;;;;;;;;;;5089381;28;1143;-72
2022/07/13 10:22:52;;;;;;;;;;;;;;;;;;5082449;28;1406;-72
2022/07/13 10:25:18;;;;;;;;;;;;;;;;;;5083871;28;1471;-72
2022/07/13 10:27:46;;;;;;;;;;;;;;;;;;5088891;28;2001;-72
2022/07/13 10:30:22;;;;;;;;;;;;;;;;;;5090503;28;945;-72
2022/07/13 10:32:49;;;;;;;;;;;;;;;;;;5090033;28;1068;-72
2022/07/13 10:35:16;;;;;;;;;;;;;;;;;;5087212;28;1455;-72
2022/07/13 10:38:01;;;;;;;;;;;;;;;;;;5087708;28;1624;-72
2022/07/13 10:40:28;;;;;;;;;;;;;;;;;;5084168;28;1106;-72
2022/07/13 10:43:13;;;;;;;;;;;;;;;;;;5088484;28;1477;-73
2022/07/13 10:45:43;;;;;;;;;;;;;;;;;;5088146;28;1407;-73
2022/07/13 10:48:40;;;;;;;;;;;;;;;;;;5079247;28;1914;-71
2022/07/13 10:51:06;;;;;;;;;;;;;;;;;;5089260;28;1076;-72
2022/07/13 10:53:50;;;;;;;;;;;;;;;;;;5080223;28;1801;-72
2022/07/13 10:56:17;;;;;;;;;;;;;;;;;;5088905;28;1402;-73
2022/07/13 10:58:44;;;;;;;;;;;;;;;;;;5069276;28;1273;-72
2022/07/13 11:01:29;;;;;;;;;;;;;;;;;;5069926;28;1412;-73
2022/07/13 11:03:57;;;;;;;;;;;;;;;;;;5079028;28;1387;-73
2022/07/13 11:06:24;;;;;;;;;;;;;;;;;;5089105;28;1917;-74
2022/07/13 11:09:07;;;;;;;;;;;;;;;;;;5089251;28;1587;-73
2022/07/13 11:11:33;;;;;;;;;;;;;;;;;;5084437;28;1201;-73
2022/07/13 11:14:00;;;;;;;;;;;;;;;;;;5089163;28;1157;-73
2022/07/13 11:16:41;;;;;;;;;;;;;;;;;;5071147;28;1312;-73
2022/07/13 11:19:08;;;;;;;;;;;;;;;;;;5072408;28;1392;-73
2022/07/13 11:21:46;;;;;;;;;;;;;;;;;;5069837;28;1464;-73
2022/07/13 11:26:58;;;;;;;;;;;;;;;;;;5088077;28;1981;-73
2022/07/13 11:29:29;;;;;;;;;;;;;;;;;;5064056;28;1608;-73
2022/07/13 11:31:55;;;;;;;;;;;;;;;;;;5077890;28;1241;-72
2022/07/13 11:34:23;;;;;;;;;;;;;;;;;;5075230;28;1445;-73
2022/07/13 11:36:49;;;;;;;;;;;;;;;;;;5090234;28;1178;-73
2022/07/13 11:39:22;;;;;;;;;;;;;;;;;;5072899;28;1412;-73
2022/07/13 11:41:48;;;;;;;;;;;;;;;;;;5089139;28;1161;-74
2022/07/13 11:44:14;;;;;;;;;;;;;;;;;;5093062;28;1335;-73
2022/07/13 11:46:40;;;;;;;;;;;;;;;;;;5091961;28;1917;-74
2022/07/13 11:49:07;;;;;;;;;;;;;;;;;;5092282;28;1167;-73
2022/07/13 11:51:34;;;;;;;;;;;;;;;;;;5083560;28;1407;-74
2022/07/13 11:54:07;;;;;;;;;;;;;;;;;;5089942;28;1292;-74
2022/07/13 11:56:34;;;;;;;;;;;;;;;;;;5093082;28;1266;-73
2022/07/13 11:59:00;;;;;;;;;;;;;;;;;;5092027;28;1222;-73
2022/07/13 12:01:28;;;;;;;;;;;;;;;;;;5089898;28;1421;-73
2022/07/13 12:03:55;;;;;;;;;;;;;;;;;;5086491;28;1486;-72
2022/07/13 12:06:22;;;;;;;;;;;;;;;;;;5067057;28;1341;-73
2022/07/13 12:08:51;;;;;;;;;;;;;;;;;;5091111;28;1921;-73
2022/07/13 12:11:17;;;;;;;;;;;;;;;;;;5067834;28;1236;-73
2022/07/13 12:13:44;;;;;;;;;;;;;;;;;;5085094;28;1477;-73
2022/07/13 12:16:11;;;;;;;;;;;;;;;;;;5073995;28;1314;-72
2022/07/13 12:19:01;;;;;;;;;;;;;;;;;;5093186;28;1079;-73
2022/07/13 12:21:27;;;;;;;;;;;;;;;;;;5089108;28;1475;-73
2022/07/13 12:23:54;;;;;;;;;;;;;;;;;;5090958;28;1417;-73
2022/07/13 12:26:21;;;;;;;;;;;;;;;;;;5073990;28;1388;-73
2022/07/13 12:28:47;;;;;;;;;;;;;;;;;;5088237;28;1949;-74
2022/07/13 12:31:13;;;;;;;;;;;;;;;;;;5092594;28;916;-73
2022/07/13 12:33:42;;;;;;;;;;;;;;;;;;5092545;28;986;-73
2022/07/13 12:36:09;;;;;;;;;;;;;;;;;;5091865;28;1301;-72
2022/07/13 12:38:36;;;;;;;;;;;;;;;;;;5071061;28;1453;-73
2022/07/13 12:41:03;;;;;;;;;;;;;;;;;;5089059;28;1579;-74
2022/07/13 12:43:30;;;;;;;;;;;;;;;;;;5091196;28;1145;-73
2022/07/13 12:45:57;;;;;;;;;;;;;;;;;;5096233;28;1380;-73
2022/07/13 12:48:24;;;;;;;;;;;;;;;;;;5092084;28;1917;-73
2022/07/13 12:50:57;;;;;;;;;;;;;;;;;;5082960;28;1460;-73
2022/07/13 12:53:23;;;;;;;;;;;;;;;;;;5092307;28;1077;-73
2022/07/13 12:55:53;;;;;;;;;;;;;;;;;;5093790;28;1424;-74
2022/07/13 12:58:21;;;;;;;;;;;;;;;;;;5092103;28;1153;-73
2022/07/13 13:00:48;;;;;;;;;;;;;;;;;;5092556;28;782;-74
2022/07/13 13:03:14;;;;;;;;;;;;;;;;;;5089951;28;1415;-73
2022/07/13 13:05:41;;;;;;;;;;;;;;;;;;5083321;28;1357;-73
2022/07/13 13:08:07;;;;;;;;;;;;;;;;;;5080297;28;1926;-74
2022/07/13 13:10:34;;;;;;;;;;;;;;;;;;5086630;28;1174;-74
2022/07/13 13:13:00;;;;;;;;;;;;;;;;;;5090349;28;1400;-74
2022/07/13 13:15:27;;;;;;;;;;;;;;;;;;5083070;28;1490;-74
2022/07/13 13:17:53;;;;;;;;;;;;;;;;;;5081095;28;1857;-74
2022/07/13 13:20:20;;;;;;;;;;;;;;;;;;5080665;28;1841;-74
2022/07/13 13:22:46;;;;;;;;;;;;;;;;;;5091810;28;1145;-74
2022/07/13 13:25:12;;;;;;;;;;;;;;;;;;5089881;28;1329;-74
2022/07/13 13:27:38;;;;;;;;;;;;;;;;;;5090946;28;1918;-73
2022/07/13 13:32:51;;;;;;;;;;;;;;;;;;5070311;28;1070;-73
2022/07/13 13:35:17;;;;;;;;;;;;;;;;;;5091266;28;1430;-74
2022/07/13 13:37:45;;;;;;;;;;;;;;;;;;5090222;28;1821;-73
2022/07/13 13:40:12;;;;;;;;;;;;;;;;;;5081084;28;1515;-73
2022/07/13 13:42:39;;;;;;;;;;;;;;;;;;5086794;28;1189;-75
2022/07/13 13:45:06;;;;;;;;;;;;;;;;;;5090047;28;1406;-76
2022/07/13 13:47:32;;;;;;;;;;;;;;;;;;5090641;28;1914;-75
2022/07/13 13:49:59;;;;;;;;;;;;;;;;;;5084387;28;1767;-74
2022/07/13 13:52:27;;;;;;;;;;;;;;;;;;5068556;28;1214;-75
2022/07/13 13:54:53;;;;;;;;;;;;;;;;;;5090932;28;1419;-75
2022/07/13 13:57:19;;;;;;;;;;;;;;;;;;5085520;28;1753;-74
2022/07/13 13:59:45;;;;;;;;;;;;;;;;;;5090259;28;1094;-74
2022/07/13 14:02:12;;;;;;;;;;;;;;;;;;5089518;28;1159;-76
2022/07/13 14:04:38;;;;;;;;;;;;;;;;;;5089360;28;1329;-76
2022/07/13 14:07:06;;;;;;;;;;;;;;;;;;5088812;28;1793;-76
2022/07/13 14:09:32;;;;;;;;;;;;;;;;;;5082234;28;1980;-75
2022/07/13 14:11:59;;;;;;;;;;;;;;;;;;5090371;28;1608;-76
2022/07/13 14:14:25;;;;;;;;;;;;;;;;;;5071504;28;1516;-76
2022/07/13 14:16:51;;;;;;;;;;;;;;;;;;5073671;28;1809;-75
2022/07/13 14:19:17;;;;;;;;;;;;;;;;;;5072167;28;1219;-76
2022/07/13 14:21:44;;;;;;;;;;;;;;;;;;5089784;28;1132;-76
2022/07/13 14:24:11;;;;;;;;;;;;;;;;;;5070378;28;1461;-78
2022/07/13 14:26:38;;;;;;;;;;;;;;;;;;5088753;28;1348;-77
2022/07/13 14:29:04;;;;;;;;;;;;;;;;;;5080022;28;1917;-76
2022/07/13 14:31:30;;;;;;;;;;;;;;;;;;5071474;28;1325;-77
2022/07/13 14:33:57;;;;;;;;;;;;;;;;;;5074793;28;1412;-76
2022/07/13 14:36:25;;;;;;;;;;;;;;;;;;5089821;28;1449;-76
2022/07/13 14:38:51;;;;;;;;;;;;;;;;;;5079923;28;1144;-75
2022/07/13 14:41:18;;;;;;;;;;;;;;;;;;5085541;28;1050;-76
2022/07/13 14:43:45;;;;;;;;;;;;;;;;;;5076717;28;1627;-75
2022/07/13 14:46:11;;;;;;;;;;;;;;;;;;5089586;28;1329;-76
2022/07/13 14:48:38;;;;;;;;;;;;;;;;;;5065425;28;2044;-75
2022/07/13 14:51:04;;;;;;;;;;;;;;;;;;5085588;28;1524;-76
2022/07/13 14:53:30;;;;;;;;;;;;;;;;;;5089506;28;1677;-75
2022/07/13 14:55:58;;;;;;;;;;;;;;;;;;5086734;28;1877;-75
2022/07/13 14:58:25;;;;;;;;;;;;;;;;;;5089173;28;1161;-76
2022/07/13 15:00:52;;;;;;;;;;;;;;;;;;5088812;28;1762;-75
2022/07/13 15:03:18;;;;;;;;;;;;;;;;;;5088356;28;1201;-75
2022/07/13 15:05:44;;;;;;;;;;;;;;;;;;5088731;28;1771;-76
2022/07/13 15:08:10;;;;;;;;;;;;;;;;;;5089201;28;1909;-76
2022/07/13 15:10:37;;;;;;;;;;;;;;;;;;5088925;28;1821;-77
2022/07/13 15:13:03;;;;;;;;;;;;;;;;;;5086887;28;1168;-78
2022/07/13 15:15:32;;;;;;;;;;;;;;;;;;5089379;28;1426;-77
2022/07/13 15:17:59;;;;;;;;;;;;;;;;;;5073394;28;1968;-76
2022/07/13 15:20:25;;;;;;;;;;;;;;;;;;5087617;28;1473;-76
2022/07/13 15:22:52;;;;;;;;;;;;;;;;;;5087687;28;1719;-76
2022/07/13 15:25:18;;;;;;;;;;;;;;;;;;5086268;28;1612;-76
2022/07/13 15:27:44;;;;;;;;;;;;;;;;;;5070453;28;2028;-76
2022/07/13 15:30:11;;;;;;;;;;;;;;;;;;5090018;28;1013;-76
2022/07/13 15:32:39;;;;;;;;;;;;;;;;;;5090156;28;1122;-76
2022/07/13 15:35:06;;;;;;;;;;;;;;;;;;5088884;28;1396;-75
2022/07/13 15:37:32;;;;;;;;;;;;;;;;;;5070059;28;1853;-76
2022/07/13 15:39:58;;;;;;;;;;;;;;;;;;5089104;28;1635;-76
2022/07/13 15:42:24;;;;;;;;;;;;;;;;;;5089893;28;1150;-76
2022/07/13 15:44:51;;;;;;;;;;;;;;;;;;5089484;28;1436;-76
2022/07/13 15:47:17;;;;;;;;;;;;;;;;;;5070682;28;1762;-77
2022/07/13 15:49:44;;;;;;;;;;;;;;;;;;5089503;28;1982;-76
2022/07/13 15:52:10;;;;;;;;;;;;;;;;;;5089227;28;1185;-78
2022/07/13 15:54:37;;;;;;;;;;;;;;;;;;5088440;28;1814;-76
2022/07/13 15:57:03;;;;;;;;;;;;;;;;;;5067130;28;1509;-77
2022/07/13 15:59:29;;;;;;;;;;;;;;;;;;5088173;28;1556;-77
2022/07/13 16:01:55;;;;;;;;;;;;;;;;;;5079856;28;1477;-77
2022/07/13 16:04:21;;;;;;;;;;;;;;;;;;5080513;28;1433;-76
2022/07/13 16:06:49;;;;;;;;;;;;;;;;;;5087663;28;984;-77
2022/07/13 16:09:15;;;;;;;;;;;;;;;;;;5088800;28;1981;-77
2022/07/13 16:11:41;;;;;;;;;;;;;;;;;;5090434;28;774;-76
2022/07/13 16:14:08;;;;;;;;;;;;;;;;;;5090169;28;1076;-76
2022/07/13 16:16:34;;;;;;;;;;;;;;;;;;5089807;28;1313;-76
2022/07/13 16:19:00;;;;;;;;;;;;;;;;;;5094094;28;791;-76
2022/07/13 16:21:26;;;;;;;;;;;;;;;;;;5093957;28;1071;-77
2022/07/13 16:23:54;;;;;;;;;;;;;;;;;;5093622;28;1450;-77
2022/07/13 16:26:20;;;;;;;;;;;;;;;;;;5093007;28;1306;-76
2022/07/13 16:28:46;;;;;;;;;;;;;;;;;;5093809;28;1918;-76
2022/07/13 16:31:12;;;;;;;;;;;;;;;;;;5093378;28;1071;-76
2022/07/13 16:33:39;;;;;;;;;;;;;;;;;;5093125;28;932;-76
2022/07/13 16:36:05;;;;;;;;;;;;;;;;;;5092408;28;1292;-78
2022/07/13 16:38:31;;;;;;;;;;;;;;;;;;5075270;28;1198;-77
2022/07/13 16:40:59;;;;;;;;;;;;;;;;;;5093488;28;948;-77
2022/07/13 16:43:25;;;;;;;;;;;;;;;;;;5075350;28;1194;-76
2022/07/13 16:45:51;;;;;;;;;;;;;;;;;;5093439;28;1296;-76
2022/07/13 16:48:17;;;;;;;;;;;;;;;;;;5092564;28;1918;-76
2022/07/13 16:50:44;;;;;;;;;;;;;;;;;;5093592;28;926;-76
2022/07/13 16:53:10;;;;;;;;;;;;;;;;;;5075020;28;1262;-76
2022/07/13 16:55:36;;;;;;;;;;;;;;;;;;5093593;28;1321;-76
2022/07/13 16:58:04;;;;;;;;;;;;;;;;;;5092496;28;1000;-76
2022/07/13 17:00:30;;;;;;;;;;;;;;;;;;5093365;28;1083;-76
2022/07/13 17:02:56;;;;;;;;;;;;;;;;;;5092816;28;782;-76
2022/07/13 17:05:23;;;;;;;;;;;;;;;;;;5093270;28;1308;-76
2022/07/13 17:07:49;;;;;;;;;;;;;;;;;;5092640;28;1044;-77
2022/07/13 17:10:16;;;;;;;;;;;;;;;;;;5092761;28;1981;-76
2022/07/13 17:12:43;;;;;;;;;;;;;;;;;;5091212;28;1521;-76
2022/07/13 17:15:10;;;;;;;;;;;;;;;;;;5084330;28;1479;-76
2022/07/13 17:17:37;;;;;;;;;;;;;;;;;;5091029;28;1280;-76